Time;durP1;ratioP1;P1;durP2;ratioP2;P2;SDS_P1;SDS_P2;PMS_P1;PMS_P2;Temp;Humidity;BMP_temperature;BMP_pressure;BME280_temperature;BME280_humidity;BME280_pressure;Samples;Min_cycle;Max_cycle;Signal;HPM_P1;HPM_P2
2021/05/19 00:00:15;;;;;;;57.10;2.40;;;9.30;1.00;;;;;;5132586;27;21164;-68
2021/05/19 00:02:42;;;;;;;57.17;2.40;;;9.30;1.00;;;;;;5132110;27;20571;-68
2021/05/19 00:05:09;;;;;;;57.20;2.20;;;9.30;1.00;;;;;;5132436;27;20543;-68
2021/05/19 00:07:35;;;;;;;57.47;2.60;;;9.30;1.00;;;;;;5132719;27;20471;-68
2021/05/19 00:10:01;;;;;;;57.07;2.30;;;9.30;1.00;;;;;;5132697;27;20497;-68
2021/05/19 00:12:28;;;;;;;57.20;2.50;;;9.30;1.00;;;;;;5131940;27;21059;-68
2021/05/19 00:14:55;;;;;;;57.60;2.60;;;9.30;1.00;;;;;;5132175;27;20522;-68
2021/05/19 00:17:21;;;;;;;57.20;2.60;;;9.30;1.00;;;;;;5132353;27;20479;-68
2021/05/19 00:19:47;;;;;;;57.70;2.60;;;9.30;1.00;;;;;;5132557;27;20522;-67
2021/05/19 00:22:14;;;;;;;57.13;2.30;;;9.30;1.00;;;;;;5132122;27;20513;-68
2021/05/19 00:24:40;;;;;;;57.40;2.50;;;9.30;1.00;;;;;;5132362;27;20524;-68
2021/05/19 00:27:07;;;;;;;57.07;2.33;;;9.30;1.00;;;;;;5132314;27;20447;-68
2021/05/19 00:29:33;;;;;;;57.17;2.60;;;9.30;1.00;;;;;;5133005;27;20551;-69
2021/05/19 00:32:00;;;;;;;57.23;2.40;;;9.30;1.00;;;;;;5131794;27;20489;-68
2021/05/19 00:34:27;;;;;;;57.27;2.40;;;9.30;1.00;;;;;;5132348;27;20534;-68
2021/05/19 00:36:53;;;;;;;57.07;2.43;;;9.30;1.00;;;;;;5136433;27;20962;-67
2021/05/19 00:39:19;;;;;;;57.50;2.40;;;9.30;1.00;;;;;;5136534;27;20863;-68
2021/05/19 00:41:46;;;;;;;57.13;2.47;;;9.30;1.00;;;;;;5136182;27;21068;-67
2021/05/19 00:44:14;;;;;;;57.07;2.37;;;9.40;1.00;;;;;;5135755;27;20526;-70
2021/05/19 00:46:44;;;;;;;57.27;2.37;;;9.40;1.00;;;;;;5136535;27;20976;-68
2021/05/19 00:49:12;;;;;;;57.40;2.63;;;9.40;1.00;;;;;;5136439;27;20453;-68
2021/05/19 00:51:38;;;;;;;57.07;2.60;;;9.40;1.00;;;;;;5136270;27;20510;-68
2021/05/19 00:54:05;;;;;;;56.97;2.30;;;9.40;1.00;;;;;;5135478;27;20490;-69
2021/05/19 00:56:31;;;;;;;57.40;2.30;;;9.40;1.00;;;;;;5136056;27;20443;-68
2021/05/19 00:59:00;;;;;;;57.10;2.70;;;9.50;1.00;;;;;;5135945;27;20538;-68
2021/05/19 01:01:29;;;;;;;57.23;2.50;;;9.50;1.00;;;;;;5135956;27;21058;-68
2021/05/19 01:03:56;;;;;;;57.10;2.40;;;9.50;1.00;;;;;;5135433;27;20447;-70
2021/05/19 01:06:28;;;;;;;57.50;2.90;;;9.50;1.00;;;;;;5135636;27;20483;-68
2021/05/19 01:11:38;;;;;;;57.07;2.40;;;9.50;1.00;;;;;;5135686;27;20812;-69
2021/05/19 01:14:05;;;;;;;57.30;2.50;;;9.50;1.00;;;;;;5135617;27;20474;-68
2021/05/19 01:16:31;;;;;;;57.07;2.37;;;9.50;1.00;;;;;;5135808;27;20871;-68
2021/05/19 01:18:58;;;;;;;56.93;2.40;;;9.50;1.00;;;;;;5135650;27;20518;-68
2021/05/19 01:21:27;;;;;;;57.50;2.57;;;9.50;1.00;;;;;;5135592;27;20882;-68
2021/05/19 01:23:55;;;;;;;57.27;2.30;;;9.50;1.00;;;;;;5135027;27;20478;-67
2021/05/19 01:26:21;;;;;;;57.30;2.23;;;9.50;1.00;;;;;;5135458;27;20924;-68
2021/05/19 01:28:47;;;;;;;57.03;2.50;;;9.50;1.00;;;;;;5135645;27;20534;-68
2021/05/19 01:31:14;;;;;;;57.27;2.40;;;9.50;1.00;;;;;;5135684;27;20918;-67
2021/05/19 01:33:42;;;;;;;57.37;2.47;;;9.50;1.00;;;;;;5134907;27;20522;-68
2021/05/19 01:36:08;;;;;;;57.30;2.30;;;9.50;1.00;;;;;;5135744;27;20468;-68
2021/05/19 01:38:35;;;;;;;57.00;2.30;;;9.50;1.00;;;;;;5135060;27;21092;-68
2021/05/19 01:41:03;;;;;;;57.50;2.40;;;9.50;1.00;;;;;;5135439;27;20558;-68
2021/05/19 01:43:31;;;;;;;57.23;2.50;;;9.50;1.00;;;;;;5134918;27;20455;-68
2021/05/19 01:46:00;;;;;;;57.30;2.50;;;9.50;1.00;;;;;;5135480;27;20562;-68
2021/05/19 01:48:27;;;;;;;57.40;2.80;;;9.50;1.00;;;;;;5134157;27;20452;-68
2021/05/19 01:50:54;;;;;;;57.53;2.40;;;9.50;1.00;;;;;;5134954;27;20518;-68
2021/05/19 01:53:21;;;;;;;57.80;3.70;;;9.50;1.00;;;;;;5134557;27;20588;-68
2021/05/19 01:55:47;;;;;;;57.03;2.10;;;9.50;1.00;;;;;;5134597;27;20538;-68
2021/05/19 01:58:14;;;;;;;57.37;2.33;;;9.50;1.00;;;;;;5134513;27;20543;-69
2021/05/19 02:00:41;;;;;;;57.23;2.50;;;9.50;1.00;;;;;;5134462;27;20444;-68
2021/05/19 02:03:08;;;;;;;57.37;2.50;;;9.50;1.00;;;;;;5134560;27;20983;-69
2021/05/19 02:05:35;;;;;;;57.27;2.60;;;9.50;1.00;;;;;;5134342;27;20479;-68
2021/05/19 02:08:04;;;;;;;57.13;2.40;;;9.50;1.00;;;;;;5135168;27;20520;-68
2021/05/19 02:10:31;;;;;;;57.27;2.37;;;9.50;1.00;;;;;;5134754;27;20814;-68
2021/05/19 02:13:00;;;;;;;57.13;2.40;;;9.40;1.00;;;;;;5134241;27;20469;-70
2021/05/19 02:15:27;;;;;;;57.03;2.30;;;9.40;1.00;;;;;;5134482;27;20454;-68
2021/05/19 02:17:53;;;;;;;57.00;2.47;;;9.40;1.00;;;;;;5134641;27;20531;-68
2021/05/19 02:20:22;;;;;;;57.00;2.50;;;9.40;1.00;;;;;;5134333;27;20451;-70
2021/05/19 02:22:49;;;;;;;57.60;2.60;;;9.40;1.00;;;;;;5134131;27;20474;-69
2021/05/19 02:25:17;;;;;;;57.03;2.30;;;9.40;1.00;;;;;;5134141;27;21077;-67
2021/05/19 02:27:44;;;;;;;57.07;2.27;;;9.40;1.00;;;;;;5134704;27;20455;-67
2021/05/19 02:30:12;;;;;;;57.30;2.40;;;9.40;1.00;;;;;;5134384;27;20874;-68
2021/05/19 02:32:40;;;;;;;57.33;2.50;;;9.30;1.00;;;;;;5133677;27;20475;-68
2021/05/19 02:35:08;;;;;;;57.30;2.30;;;9.30;1.00;;;;;;5133910;27;20587;-68
2021/05/19 02:37:35;;;;;;;57.03;2.30;;;9.30;1.00;;;;;;5134128;27;21002;-68
2021/05/19 02:40:02;;;;;;;57.23;2.57;;;9.30;1.00;;;;;;5134265;27;20871;-68
2021/05/19 02:42:29;;;;;;;57.07;2.40;;;9.30;1.00;;;;;;5133900;27;20900;-68
2021/05/19 02:44:55;;;;;;;57.30;2.50;;;9.30;1.00;;;;;;5133625;27;20480;-68
2021/05/19 02:47:22;;;;;;;56.97;2.20;;;9.30;1.00;;;;;;5133810;27;20446;-67
2021/05/19 02:49:49;;;;;;;57.17;2.33;;;9.30;1.00;;;;;;5134121;27;20531;-69
2021/05/19 02:52:16;;;;;;;56.93;2.50;;;9.20;1.00;;;;;;5133638;27;20550;-68
2021/05/19 02:54:42;;;;;;;57.23;2.43;;;9.20;1.00;;;;;;5133655;27;20490;-68
2021/05/19 02:57:09;;;;;;;57.27;2.50;;;9.20;1.00;;;;;;5133685;27;20528;-68
2021/05/19 02:59:35;;;;;;;57.23;2.40;;;9.20;1.00;;;;;;5132731;27;20534;-69
2021/05/19 03:02:02;;;;;;;57.47;2.57;;;9.20;1.00;;;;;;5133182;27;20566;-68
2021/05/19 03:04:28;;;;;;;57.27;2.50;;;9.20;1.00;;;;;;5130995;27;20449;-67
2021/05/19 03:06:55;;;;;;;57.17;2.40;;;9.20;1.00;;;;;;5133601;27;20574;-68
2021/05/19 03:09:21;;;;;;;57.20;2.47;;;9.20;1.00;;;;;;5133345;27;20534;-68
2021/05/19 03:11:48;;;;;;;57.40;2.80;;;9.20;1.00;;;;;;5133359;27;20554;-68
2021/05/19 03:14:14;;;;;;;57.17;2.67;;;9.20;1.00;;;;;;5133255;27;20483;-68
2021/05/19 03:16:41;;;;;;;57.17;2.47;;;9.20;1.00;;;;;;5133189;27;20443;-67
2021/05/19 03:19:08;;;;;;;57.17;2.50;;;9.20;1.00;;;;;;5133390;27;20495;-69
2021/05/19 03:21:35;;;;;;;57.20;2.40;;;9.20;1.00;;;;;;5133178;27;20496;-67
2021/05/19 03:24:03;;;;;;;57.23;2.40;;;9.20;1.00;;;;;;5132672;27;21015;-68
2021/05/19 03:26:29;;;;;;;57.60;2.77;;;9.20;1.00;;;;;;5133140;27;20575;-67
2021/05/19 03:28:56;;;;;;;57.40;2.60;;;9.20;1.00;;;;;;5133007;27;20455;-69
2021/05/19 03:31:22;;;;;;;57.30;2.73;;;9.20;1.00;;;;;;5133179;27;20524;-68
2021/05/19 03:33:49;;;;;;;57.40;2.70;;;9.20;1.00;;;;;;5125747;27;20959;-68
2021/05/19 03:36:15;;;;;;;56.93;2.60;;;9.20;1.80;;;;;;5119432;27;20474;-67
2021/05/19 03:38:41;;;;;;;57.10;2.70;;;9.40;6.50;;;;;;5133040;27;20550;-68
2021/05/19 03:41:09;;;;;;;57.50;3.00;;;9.20;3.40;;;;;;5133048;27;20462;-67
2021/05/19 03:43:37;;;;;;;57.30;2.80;;;9.20;4.40;;;;;;5132161;27;20546;-68
2021/05/19 03:46:04;;;;;;;57.17;2.70;;;9.20;3.90;;;;;;5132937;27;20550;-68
2021/05/19 03:48:30;;;;;;;57.20;2.57;;;9.20;3.90;;;;;;5132762;27;21014;-69
2021/05/19 03:50:57;;;;;;;57.20;2.70;;;9.20;3.70;;;;;;5132795;27;20468;-68
2021/05/19 03:53:23;;;;;;;57.13;2.33;;;9.20;4.10;;;;;;5132485;27;20502;-68
2021/05/19 03:55:50;;;;;;;57.17;2.60;;;9.60;9.90;;;;;;5132619;27;20447;-68
2021/05/19 03:58:17;;;;;;;57.03;2.43;;;9.20;10.20;;;;;;5132525;27;20900;-70
2021/05/19 04:00:44;;;;;;;58.53;2.73;;;9.30;35.20;;;;;;5132824;27;20448;-68
2021/05/19 04:03:10;;;;;;;57.20;2.63;;;9.80;12.90;;;;;;5132717;27;20501;-70
2021/05/19 04:05:38;;;;;;;57.07;2.50;;;9.20;6.10;;;;;;5128617;27;20483;-68
2021/05/19 04:08:05;;;;;;;57.37;2.70;;;9.20;7.50;;;;;;5132338;27;20447;-69
2021/05/19 04:10:32;;;;;;;57.10;2.50;;;9.20;8.50;;;;;;5132370;27;20444;-68
2021/05/19 04:13:00;;;;;;;56.97;2.37;;;9.20;9.80;;;;;;5132014;27;20478;-68
2021/05/19 04:15:27;;;;;;;57.30;2.60;;;9.30;10.70;;;;;;5132358;27;20813;-68
2021/05/19 04:17:53;;;;;;;57.27;2.60;;;9.30;11.80;;;;;;5132772;27;21011;-68
2021/05/19 04:20:21;;;;;;;57.80;2.97;;;9.30;12.70;;;;;;5132247;27;20999;-68
2021/05/19 04:22:48;;;;;;;57.30;2.67;;;9.30;12.80;;;;;;5131947;27;20551;-68
2021/05/19 04:25:15;;;;;;;57.10;2.60;;;9.30;12.70;;;;;;5131848;27;20529;-68
2021/05/19 04:27:43;;;;;;;57.17;2.23;;;9.30;12.60;;;;;;5132400;27;20817;-68
2021/05/19 04:30:11;;;;;;;57.03;2.47;;;9.40;13.40;;;;;;5132573;27;20522;-70
2021/05/19 04:32:38;;;;;;;57.30;2.50;;;9.40;13.50;;;;;;5132143;27;20544;-70
2021/05/19 04:35:07;;;;;;;56.97;2.10;;;9.40;13.30;;;;;;5131879;27;20530;-68
2021/05/19 04:37:34;;;;;;;57.17;2.60;;;9.40;13.60;;;;;;5129541;27;20443;-69
2021/05/19 04:40:00;;;;;;;57.27;2.40;;;9.40;13.50;;;;;;5132195;27;20477;-68
2021/05/19 04:42:27;;;;;;;57.03;2.23;;;9.50;13.50;;;;;;5131995;27;20492;-68
2021/05/19 04:44:53;;;;;;;57.60;3.00;;;9.50;13.30;;;;;;5132060;27;20500;-68
2021/05/19 04:47:20;;;;;;;57.03;2.40;;;9.50;13.40;;;;;;5132262;27;20515;-69
2021/05/19 04:49:47;;;;;;;56.90;2.40;;;9.50;13.60;;;;;;5132107;27;20928;-68
2021/05/19 04:52:13;;;;;;;57.10;2.60;;;9.50;13.60;;;;;;5131515;27;20475;-68
2021/05/19 04:54:40;;;;;;;57.20;2.40;;;9.60;14.10;;;;;;5131920;27;20546;-67
2021/05/19 04:57:06;;;;;;;56.93;2.20;;;9.60;15.10;;;;;;5132148;27;20443;-69
2021/05/19 04:59:33;;;;;;;57.30;2.40;;;9.60;19.30;;;;;;5132414;27;20475;-68
2021/05/19 05:01:59;;;;;;;57.00;2.33;;;9.60;16.10;;;;;;5131509;27;20486;-68
2021/05/19 05:04:26;;;;;;;57.30;2.53;;;9.70;16.40;;;;;;5131832;27;20887;-68
2021/05/19 05:06:53;;;;;;;57.10;2.67;;;9.70;17.00;;;;;;5128499;27;20535;-70
2021/05/19 05:09:19;;;;;;;57.57;3.37;;;9.70;17.30;;;;;;5131621;27;20476;-68
2021/05/19 05:11:46;;;;;;;57.20;2.40;;;9.80;18.00;;;;;;5131861;27;20550;-68
2021/05/19 05:14:12;;;;;;;56.77;2.27;;;9.80;16.80;;;;;;5131179;27;20542;-68
2021/05/19 05:16:38;;;;;;;57.13;2.23;;;9.90;16.90;;;;;;5132400;27;20546;-70
2021/05/19 05:19:05;;;;;;;57.03;2.30;;;9.90;17.00;;;;;;5131802;27;20450;-69
2021/05/19 05:21:32;;;;;;;57.70;2.60;;;9.90;16.30;;;;;;5131672;27;20495;-68
2021/05/19 05:24:00;;;;;;;57.20;2.43;;;9.90;14.00;;;;;;5135281;27;20835;-68
2021/05/19 05:26:26;;;;;;;57.10;2.77;;;9.90;14.00;;;;;;5135472;27;20487;-68
2021/05/19 05:28:53;;;;;;;57.07;2.30;;;10.00;13.30;;;;;;5135542;27;20538;-68
2021/05/19 05:31:19;;;;;;;56.77;2.17;;;10.10;12.90;;;;;;5135573;27;20515;-69
2021/05/19 05:33:47;;;;;;;57.07;2.90;;;10.20;12.30;;;;;;5135126;27;20868;-68
2021/05/19 05:36:13;;;;;;;57.27;2.50;;;10.30;11.50;;;;;;5135160;27;20439;-70
2021/05/19 05:38:39;;;;;;;57.07;2.60;;;10.40;11.00;;;;;;5133098;27;20884;-69
2021/05/19 05:41:07;;;;;;;57.10;2.67;;;10.50;9.80;;;;;;5135514;27;20929;-68
2021/05/19 05:43:33;;;;;;;57.30;3.10;;;10.60;8.50;;;;;;5134708;27;20538;-69
2021/05/19 05:45:59;;;;;;;58.77;2.90;;;10.60;6.90;;;;;;5135169;27;20519;-69
2021/05/19 05:48:26;;;;;;;57.00;2.50;;;10.70;5.00;;;;;;5134820;27;20547;-69
2021/05/19 05:50:52;;;;;;;57.30;2.83;;;10.80;1.80;;;;;;5134908;27;20522;-68
2021/05/19 05:53:18;;;;;;;57.10;2.47;;;10.80;1.00;;;;;;5134973;27;20527;-68
2021/05/19 05:55:45;;;;;;;57.30;2.60;;;10.90;1.00;;;;;;5134985;27;20468;-68
2021/05/19 05:58:12;;;;;;;57.13;2.43;;;10.90;1.00;;;;;;5135003;27;20940;-68
2021/05/19 06:00:39;;;;;;;57.23;2.60;;;10.90;1.00;;;;;;5134771;27;20577;-68
2021/05/19 06:03:06;;;;;;;57.10;2.40;;;11.00;1.00;;;;;;5134563;27;20536;-70
2021/05/19 06:05:33;;;;;;;57.27;2.60;;;11.00;1.00;;;;;;5134688;27;20980;-68
2021/05/19 06:08:01;;;;;;;57.97;3.10;;;11.00;1.00;;;;;;5134981;27;20448;-68
2021/05/19 06:10:28;;;;;;;59.30;3.47;;;11.00;1.00;;;;;;5131769;27;20452;-70
2021/05/19 06:12:54;;;;;;;57.07;2.50;;;11.00;1.00;;;;;;5134335;27;21043;-68
2021/05/19 06:15:21;;;;;;;57.40;2.83;;;11.00;1.00;;;;;;5134427;27;20484;-68
2021/05/19 06:17:48;;;;;;;57.37;3.20;;;11.00;1.00;;;;;;5134363;27;20480;-68
2021/05/19 06:20:15;;;;;;;57.70;2.70;;;11.00;1.00;;;;;;5134592;27;20531;-68
2021/05/19 06:22:41;;;;;;;56.97;2.37;;;10.90;1.00;;;;;;5134275;27;20556;-68
2021/05/19 06:25:09;;;;;;;58.07;3.33;;;10.90;1.00;;;;;;5134399;27;20448;-68
2021/05/19 06:27:35;;;;;;;57.20;2.80;;;10.90;1.00;;;;;;5134478;27;20439;-67
2021/05/19 06:30:03;;;;;;;57.60;2.60;;;11.00;1.00;;;;;;5134300;27;20444;-69
2021/05/19 06:32:30;;;;;;;56.90;2.40;;;11.10;1.00;;;;;;5133506;27;20479;-68
2021/05/19 06:34:56;;;;;;;56.97;2.53;;;11.10;1.00;;;;;;5134181;27;20471;-67
2021/05/19 06:37:23;;;;;;;58.80;3.27;;;11.00;1.00;;;;;;5134300;27;20588;-68
2021/05/19 06:39:49;;;;;;;57.60;4.00;;;11.00;1.00;;;;;;5134017;27;20618;-68
2021/05/19 06:42:16;;;;;;;57.40;2.70;;;11.00;1.00;;;;;;5130394;27;20460;-68
2021/05/19 06:44:42;;;;;;;58.10;3.20;;;11.10;1.00;;;;;;5133749;27;20534;-69
2021/05/19 06:47:09;;;;;;;57.80;3.10;;;11.30;1.00;;;;;;5133733;27;20551;-68
2021/05/19 06:49:36;;;;;;;57.07;2.60;;;11.50;1.00;;;;;;5134021;27;21073;-68
2021/05/19 06:52:03;;;;;;;56.77;2.60;;;11.60;1.00;;;;;;5133869;27;21011;-69
2021/05/19 06:54:29;;;;;;;57.53;2.80;;;11.80;1.00;;;;;;5133828;27;20491;-69
2021/05/19 06:56:56;;;;;;;56.93;2.40;;;12.00;1.00;;;;;;5133757;27;20444;-68
2021/05/19 06:59:22;;;;;;;56.97;2.43;;;12.10;1.00;;;;;;5133607;27;20471;-69
2021/05/19 07:01:49;;;;;;;57.50;2.60;;;12.20;1.00;;;;;;5133621;27;20988;-69
2021/05/19 07:04:17;;;;;;;57.17;2.60;;;12.30;1.00;;;;;;5133814;27;20535;-69
2021/05/19 07:06:44;;;;;;;57.40;2.60;;;12.40;1.00;;;;;;5133687;27;20480;-68
2021/05/19 07:09:10;;;;;;;57.47;3.00;;;12.60;1.00;;;;;;5133630;27;21026;-68
2021/05/19 07:11:37;;;;;;;57.50;2.40;;;12.70;1.00;;;;;;5124821;27;20556;-69
2021/05/19 07:14:05;;;;;;;57.70;2.40;;;12.80;1.00;;;;;;5120525;27;20489;-69
2021/05/19 07:16:34;;;;;;;57.20;2.50;;;12.70;1.00;;;;;;5133512;27;20506;-68
2021/05/19 07:19:00;;;;;;;57.30;2.50;;;12.60;1.00;;;;;;5133529;27;20448;-68
2021/05/19 07:21:27;;;;;;;57.20;2.70;;;12.60;1.00;;;;;;5133279;27;20503;-69
2021/05/19 07:23:54;;;;;;;57.03;2.40;;;12.70;1.00;;;;;;5132941;27;20804;-69
2021/05/19 07:26:23;;;;;;;57.17;2.50;;;12.60;1.00;;;;;;5133196;27;21010;-69
2021/05/19 07:28:51;;;;;;;57.07;2.30;;;12.70;1.00;;;;;;5133171;27;20460;-69
2021/05/19 07:31:18;;;;;;;57.30;2.70;;;12.80;1.00;;;;;;5133171;27;20497;-69
2021/05/19 07:33:44;;;;;;;57.03;2.30;;;12.90;1.00;;;;;;5132494;27;20480;-69
2021/05/19 07:36:10;;;;;;;56.87;2.50;;;12.90;1.00;;;;;;5133084;27;20514;-68
2021/05/19 07:38:37;;;;;;;57.50;2.53;;;13.00;1.00;;;;;;5133066;27;20444;-69
2021/05/19 07:41:04;;;;;;;57.30;2.50;;;12.90;1.00;;;;;;5132898;27;20629;-68
2021/05/19 07:43:30;;;;;;;57.30;2.70;;;13.10;1.00;;;;;;5130124;27;20448;-68
2021/05/19 07:45:57;;;;;;;57.40;2.70;;;13.30;1.00;;;;;;5131880;27;20996;-69
2021/05/19 07:48:23;;;;;;;57.27;2.70;;;13.80;1.00;;;;;;5133049;27;20452;-69
2021/05/19 07:50:50;;;;;;;57.60;2.70;;;14.20;1.00;;;;;;5132927;27;20494;-69
2021/05/19 07:53:16;;;;;;;57.10;2.43;;;14.50;1.00;;;;;;5132408;27;20527;-69
2021/05/19 07:55:47;;;;;;;57.00;2.37;;;14.50;1.00;;;;;;5132281;27;21085;-68
2021/05/19 07:58:18;;;;;;;57.50;2.67;;;14.30;1.00;;;;;;5128968;27;20869;-68
2021/05/19 08:00:58;;;;;;;57.07;2.57;;;13.90;1.00;;;;;;5132720;27;20452;-68
2021/05/19 08:03:25;;;;;;;57.17;2.43;;;13.60;1.00;;;;;;5132229;27;21016;-68
2021/05/19 08:05:52;;;;;;;56.90;2.10;;;13.30;1.00;;;;;;5132507;27;20856;-68
2021/05/19 08:08:19;;;;;;;57.23;2.77;;;13.00;1.00;;;;;;5132778;27;20964;-68
2021/05/19 08:10:45;;;;;;;57.67;2.90;;;12.70;1.00;;;;;;5132760;27;20452;-68
2021/05/19 08:13:12;;;;;;;57.17;2.60;;;12.50;1.00;;;;;;5132421;27;20452;-68
2021/05/19 08:15:39;;;;;;;57.33;2.30;;;12.30;1.00;;;;;;5132273;27;20520;-68
2021/05/19 08:18:06;;;;;;;57.40;2.80;;;12.30;1.00;;;;;;5132544;27;20538;-68
2021/05/19 08:20:33;;;;;;;57.50;2.40;;;12.40;1.00;;;;;;5132315;27;20846;-68
2021/05/19 08:22:59;;;;;;;57.20;2.37;;;12.50;1.00;;;;;;5132044;27;20500;-68
2021/05/19 08:25:26;;;;;;;56.87;2.00;;;12.60;1.00;;;;;;5132351;27;20864;-67
2021/05/19 08:27:52;;;;;;;57.37;2.53;;;13.00;1.00;;;;;;5131580;27;20444;-68
2021/05/19 08:30:19;;;;;;;56.97;2.40;;;13.30;1.00;;;;;;5129932;27;20876;-68
2021/05/19 08:32:46;;;;;;;57.00;2.47;;;13.60;1.00;;;;;;5131922;27;20608;-68
2021/05/19 08:35:13;;;;;;;56.93;2.20;;;13.80;1.00;;;;;;5131948;27;20957;-67
2021/05/19 08:37:40;;;;;;;57.07;2.23;;;14.00;1.00;;;;;;5132439;27;20448;-68
2021/05/19 08:40:08;;;;;;;57.27;2.43;;;14.10;1.00;;;;;;5132241;27;20470;-67
2021/05/19 08:42:34;;;;;;;56.90;2.00;;;14.10;1.00;;;;;;5132197;27;20543;-68
2021/05/19 08:45:01;;;;;;;56.93;2.20;;;14.10;1.00;;;;;;5132177;27;20448;-68
2021/05/19 08:47:27;;;;;;;57.17;2.70;;;14.10;1.00;;;;;;5132165;27;20580;-67
2021/05/19 08:49:54;;;;;;;57.07;2.43;;;14.20;1.00;;;;;;5131866;27;20472;-67
2021/05/19 08:52:21;;;;;;;56.90;2.30;;;14.30;1.00;;;;;;5131918;27;20486;-67
2021/05/19 08:54:49;;;;;;;57.50;2.33;;;14.40;1.00;;;;;;5132145;27;20866;-67
2021/05/19 08:57:17;;;;;;;57.40;2.40;;;14.40;1.00;;;;;;5135145;27;20486;-67
2021/05/19 08:59:44;;;;;;;57.60;2.67;;;14.40;1.00;;;;;;5133463;27;20460;-67
2021/05/19 09:02:12;;;;;;;57.10;2.40;;;14.60;1.00;;;;;;5135316;27;20581;-67
2021/05/19 09:04:39;;;;;;;58.87;2.90;;;14.70;1.00;;;;;;5135801;27;20539;-68
2021/05/19 09:07:07;;;;;;;57.20;2.40;;;14.80;1.00;;;;;;5136251;27;20571;-68
2021/05/19 09:09:35;;;;;;;57.20;2.70;;;14.90;1.00;;;;;;5136033;27;20501;-69
2021/05/19 09:12:05;;;;;;;56.83;2.50;;;15.00;1.00;;;;;;5135881;27;20465;-68
2021/05/19 09:14:34;;;;;;;57.90;3.13;;;15.00;1.00;;;;;;5135710;27;20455;-68
2021/05/19 09:17:23;;;;;;;57.10;2.50;;;14.80;1.00;;;;;;5135636;27;20476;-68
2021/05/19 09:19:51;;;;;;;57.40;2.70;;;14.70;1.00;;;;;;5136048;27;20527;-68
2021/05/19 09:22:23;;;;;;;57.70;2.80;;;14.70;1.00;;;;;;5135259;27;20551;-68
2021/05/19 09:24:50;;;;;;;58.17;2.70;;;14.70;1.00;;;;;;5135946;27;20447;-68
2021/05/19 09:27:17;;;;;;;57.17;2.37;;;14.80;1.00;;;;;;5135255;27;20992;-68
2021/05/19 09:29:47;;;;;;;57.60;3.30;;;15.10;1.00;;;;;;5135746;27;20533;-68
2021/05/19 09:32:15;;;;;;;57.23;2.70;;;15.30;1.00;;;;;;5115565;27;20555;-68
2021/05/19 09:34:43;;;;;;;57.30;2.50;;;15.50;1.00;;;;;;5134576;27;20459;-68
2021/05/19 09:37:23;;;;;;;57.23;2.77;;;15.60;1.00;;;;;;5135249;27;21017;-69
2021/05/19 09:39:52;;;;;;;57.10;2.60;;;15.70;1.00;;;;;;5134902;27;20449;-68
2021/05/19 09:42:19;;;;;;;56.87;2.43;;;15.70;1.00;;;;;;5135159;27;20544;-68
2021/05/19 09:44:48;;;;;;;57.20;2.40;;;15.70;1.00;;;;;;5135271;27;20441;-68
2021/05/19 09:47:34;;;;;;;56.93;2.70;;;15.60;1.00;;;;;;5135183;27;20480;-68
2021/05/19 09:50:01;;;;;;;57.00;2.50;;;15.60;1.00;;;;;;5135712;27;20444;-69
2021/05/19 09:52:28;;;;;;;56.67;2.30;;;15.80;1.00;;;;;;5134544;27;20548;-69
2021/05/19 09:55:04;;;;;;;57.73;2.77;;;16.00;1.00;;;;;;5134864;27;20445;-68
2021/05/19 09:57:41;;;;;;;56.87;2.30;;;16.30;1.00;;;;;;5135149;27;20445;-68
2021/05/19 10:00:09;;;;;;;57.23;2.40;;;16.40;1.00;;;;;;5135160;27;20437;-68
2021/05/19 10:02:36;;;;;;;57.07;2.30;;;16.70;1.00;;;;;;5130484;27;20480;-69
2021/05/19 10:05:10;;;;;;;58.47;2.43;;;17.10;1.00;;;;;;5134256;27;20822;-69
2021/05/19 10:07:38;;;;;;;56.93;2.23;;;17.20;1.00;;;;;;5134134;27;20479;-67
2021/05/19 10:10:06;;;;;;;57.27;2.30;;;17.50;1.00;;;;;;5135097;27;20446;-67
2021/05/19 10:12:33;;;;;;;56.63;2.30;;;17.60;1.00;;;;;;5134257;27;20467;-67
2021/05/19 10:15:06;;;;;;;57.30;2.30;;;17.70;1.00;;;;;;5134454;27;20948;-67
2021/05/19 10:17:39;;;;;;;56.67;2.20;;;18.50;1.00;;;;;;5134784;27;20448;-67
2021/05/19 10:20:06;;;;;;;56.50;2.17;;;19.70;1.00;;;;;;5134575;27;20960;-67
2021/05/19 10:22:35;;;;;;;56.83;2.10;;;20.70;1.00;;;;;;5134217;27;20494;-67
2021/05/19 10:25:04;;;;;;;57.60;2.50;;;21.40;1.00;;;;;;5134171;27;20547;-67
2021/05/19 10:27:48;;;;;;;56.73;2.03;;;22.10;1.00;;;;;;5134399;27;20881;-68
2021/05/19 10:30:33;;;;;;;57.30;2.60;;;22.80;1.00;;;;;;5134468;27;20517;-69
2021/05/19 10:32:59;;;;;;;56.97;2.00;;;23.40;1.00;;;;;;5123903;27;20555;-68
2021/05/19 10:35:30;;;;;;;57.17;2.13;;;23.40;1.00;;;;;;5123966;27;20455;-68
2021/05/19 10:38:14;;;;;;;56.97;2.10;;;22.90;1.00;;;;;;5134352;27;20447;-68
2021/05/19 10:40:49;;;;;;;56.53;2.20;;;23.40;1.00;;;;;;5134115;27;20615;-68
2021/05/19 10:43:16;;;;;;;56.97;1.90;;;24.20;1.00;;;;;;5133909;27;20991;-68
2021/05/19 10:45:51;;;;;;;56.87;2.00;;;24.90;1.00;;;;;;5133656;27;20449;-68
2021/05/19 10:48:31;;;;;;;56.90;2.00;;;25.00;1.00;;;;;;5133871;27;20443;-68
2021/05/19 10:51:03;;;;;;;56.80;2.00;;;24.90;1.00;;;;;;5133797;27;20461;-68
2021/05/19 10:59:19;;;;;;;56.70;2.00;;;25.50;1.00;;;;;;5122791;27;20432;-68
2021/05/19 11:01:58;;;;;;;56.90;1.97;;;25.70;1.00;;;;;;5133688;27;20502;-67
2021/05/19 11:04:27;;;;;;;56.90;1.90;;;26.20;1.00;;;;;;5131127;27;20450;-67
2021/05/19 11:07:07;;;;;;;56.83;1.90;;;25.90;1.00;;;;;;5133374;27;20483;-68
2021/05/19 11:09:34;;;;;;;56.90;1.90;;;25.80;1.00;;;;;;5133495;27;20519;-68
2021/05/19 11:12:40;;;;;;;57.00;2.00;;;26.10;1.00;;;;;;5133384;27;20472;-68
2021/05/19 11:18:46;;;;;;;57.00;2.00;;;26.70;1.00;;;;;;5122693;27;20437;-67
2021/05/19 11:21:18;;;;;;;56.80;1.83;;;26.70;1.00;;;;;;5132510;27;20460;-67
2021/05/19 11:24:02;;;;;;;56.90;1.90;;;26.90;1.00;;;;;;5132837;27;20535;-67
2021/05/19 11:26:39;;;;;;;56.73;1.87;;;26.80;1.00;;;;;;5133768;27;20516;-67
2021/05/19 11:29:08;;;;;;;56.67;1.80;;;26.60;1.00;;;;;;5132715;27;20569;-68
2021/05/19 11:31:39;;;;;;;56.80;1.90;;;26.80;1.00;;;;;;5133297;27;20492;-67
2021/05/19 11:34:05;;;;;;;56.80;1.90;;;27.00;1.00;;;;;;5132880;27;20452;-67
2021/05/19 11:36:35;;;;;;;56.70;1.80;;;27.40;1.00;;;;;;5133049;27;20441;-67
2021/05/19 11:39:05;;;;;;;56.57;1.80;;;27.80;1.00;;;;;;5133169;27;20449;-68
2021/05/19 11:41:32;;;;;;;56.57;1.93;;;28.10;1.00;;;;;;5133139;27;20782;-69
2021/05/19 11:43:58;;;;;;;56.87;2.10;;;28.70;1.00;;;;;;5132569;27;21392;-68
2021/05/19 11:46:26;;;;;;;56.77;2.00;;;29.40;1.00;;;;;;5133005;27;20488;-68
2021/05/19 11:48:52;;;;;;;57.57;2.30;;;29.90;1.00;;;;;;5132927;27;20534;-68
2021/05/19 11:51:21;;;;;;;56.87;2.10;;;30.20;1.00;;;;;;5132747;27;20530;-68
2021/05/19 11:53:59;;;;;;;56.93;2.70;;;30.40;1.00;;;;;;5132339;27;20904;-69
2021/05/19 11:56:41;;;;;;;56.63;2.03;;;30.40;1.00;;;;;;5132814;27;20448;-67
2021/05/19 11:59:20;;;;;;;59.50;2.10;;;30.90;1.00;;;;;;5132456;27;20433;-66
2021/05/19 12:01:58;;;;;;;60.80;2.10;;;31.50;1.00;;;;;;5131522;27;20508;-67
2021/05/19 12:04:27;;;;;;;57.50;1.97;;;31.70;1.00;;;;;;5132590;27;20248;-67
2021/05/19 12:06:53;;;;;;;56.47;1.70;;;31.70;1.00;;;;;;5132660;27;20536;-68
2021/05/19 12:09:22;;;;;;;56.40;1.80;;;32.00;1.00;;;;;;5132540;27;20472;-66
2021/05/19 12:11:49;;;;;;;56.33;1.70;;;31.70;1.00;;;;;;5132509;27;20468;-67
2021/05/19 12:14:15;;;;;;;56.57;1.77;;;31.60;1.00;;;;;;5132597;27;20451;-68
2021/05/19 12:16:44;;;;;;;56.80;2.00;;;31.70;1.00;;;;;;5132628;27;20886;-66
2021/05/19 12:19:13;;;;;;;56.40;1.80;;;32.10;1.00;;;;;;5132284;27;20451;-67
2021/05/19 12:21:41;;;;;;;56.60;1.90;;;32.40;1.00;;;;;;5132560;27;20492;-67
2021/05/19 12:24:09;;;;;;;56.90;2.00;;;32.30;1.00;;;;;;5131974;27;20940;-68
2021/05/19 12:26:37;;;;;;;56.57;1.93;;;32.20;1.00;;;;;;5132092;27;20984;-66
2021/05/19 12:29:03;;;;;;;57.00;2.30;;;32.10;1.00;;;;;;5132526;27;20444;-66
2021/05/19 12:31:32;;;;;;;56.47;2.00;;;31.90;1.00;;;;;;5134140;27;20498;-66
2021/05/19 12:33:59;;;;;;;56.70;2.00;;;31.70;1.00;;;;;;5135893;27;20458;-67
2021/05/19 12:36:29;;;;;;;56.37;1.80;;;31.60;1.00;;;;;;5136534;27;20440;-67
2021/05/19 12:38:59;;;;;;;56.27;2.10;;;31.80;1.00;;;;;;5136540;27;20483;-67
2021/05/19 12:41:44;;;;;;;56.57;2.10;;;31.90;1.00;;;;;;5136775;27;20468;-68
2021/05/19 12:44:12;;;;;;;56.47;2.00;;;31.70;1.00;;;;;;5136048;27;20546;-69
2021/05/19 12:46:38;;;;;;;56.57;1.90;;;31.70;1.00;;;;;;5136363;27;20572;-69
2021/05/19 12:49:12;;;;;;;56.60;2.10;;;32.20;1.00;;;;;;5136399;27;20527;-68
2021/05/19 12:51:52;;;;;;;56.47;1.90;;;32.50;1.00;;;;;;5136246;27;20586;-68
2021/05/19 12:54:22;;;;;;;56.30;1.80;;;32.30;1.00;;;;;;5136220;27;20472;-68
2021/05/19 12:57:03;;;;;;;56.67;1.87;;;32.20;1.00;;;;;;5136155;27;20441;-67
2021/05/19 12:59:45;;;;;;;56.57;2.00;;;32.20;1.00;;;;;;5136360;27;20551;-69
2021/05/19 13:02:11;;;;;;;57.30;2.00;;;31.20;1.00;;;;;;5135378;27;20530;-68
2021/05/19 13:04:38;;;;;;;56.57;1.83;;;29.90;1.00;;;;;;5136101;27;20543;-67
2021/05/19 13:07:13;;;;;;;56.90;1.97;;;29.10;1.00;;;;;;5136135;27;20570;-68